createdAt,value
2022-08-26T00:02:12.781Z,21.94
2022-08-26T00:04:40.527Z,21.91
2022-08-26T00:07:08.467Z,21.88
2022-08-26T00:09:38.942Z,21.87
2022-08-26T00:12:09.306Z,21.86
2022-08-26T00:14:39.725Z,21.82
2022-08-26T00:17:08.646Z,21.80
2022-08-26T00:19:36.310Z,21.77
2022-08-26T00:22:04.218Z,21.74
2022-08-26T00:24:32.614Z,21.71
2022-08-26T00:27:00.387Z,21.70
2022-08-26T00:29:28.453Z,21.68
2022-08-26T00:31:59.509Z,21.65
2022-08-26T00:34:27.155Z,21.61
2022-08-26T00:36:54.621Z,21.58
2022-08-26T00:39:22.145Z,21.56
2022-08-26T00:41:50.439Z,21.55
2022-08-26T00:44:19.439Z,21.53
2022-08-26T00:46:51.304Z,21.52
2022-08-26T00:49:40.893Z,21.50
2022-08-26T00:52:14.501Z,21.47
2022-08-26T00:54:51.026Z,21.43
2022-08-26T00:57:22.281Z,21.40
2022-08-26T00:59:56.580Z,21.37
2022-08-26T01:02:24.708Z,21.35
2022-08-26T01:04:56.483Z,21.32
2022-08-26T01:07:30.312Z,21.29
2022-08-26T01:10:00.689Z,21.25
2022-08-26T01:12:32.669Z,21.21
2022-08-26T01:15:02.070Z,21.17
2022-08-26T01:17:30.537Z,21.13
2022-08-26T01:20:12.990Z,21.10
2022-08-26T01:23:03.404Z,21.07
2022-08-26T01:25:34.422Z,21.02
2022-08-26T01:28:06.436Z,20.98
2022-08-26T01:30:35.392Z,20.95
2022-08-26T01:33:06.943Z,20.92
2022-08-26T01:35:34.616Z,20.90
2022-08-26T01:38:02.121Z,20.89
2022-08-26T01:40:33.909Z,20.88
2022-08-26T01:43:03.778Z,20.86
2022-08-26T01:45:34.474Z,20.85
2022-08-26T01:48:07.550Z,20.83
2022-08-26T01:50:36.960Z,20.80
2022-08-26T01:53:11.065Z,20.77
2022-08-26T01:55:42.915Z,20.76
2022-08-26T01:58:17.885Z,20.75
2022-08-26T02:00:46.974Z,20.72
2022-08-26T02:03:16.496Z,20.69
2022-08-26T02:05:58.125Z,20.65
2022-08-26T02:08:35.947Z,20.60
2022-08-26T02:11:04.084Z,20.56
2022-08-26T02:13:34.834Z,20.52
2022-08-26T02:16:03.840Z,20.50
2022-08-26T02:18:37.969Z,20.49
2022-08-26T02:21:07.537Z,20.47
2022-08-26T02:23:35.867Z,20.45
2022-08-26T02:26:09.215Z,20.44
2022-08-26T02:28:45.628Z,20.43
2022-08-26T02:31:13.135Z,20.43
2022-08-26T02:33:43.105Z,20.44
2022-08-26T02:36:13.381Z,20.45
2022-08-26T02:38:41.092Z,20.45
2022-08-26T02:41:11.369Z,20.44
2022-08-26T02:43:38.910Z,20.41
2022-08-26T02:46:06.365Z,20.39
2022-08-26T02:48:34.135Z,20.37
2022-08-26T02:51:04.099Z,20.36
2022-08-26T02:53:35.395Z,20.32
2022-08-26T02:56:07.352Z,20.29
2022-08-26T02:58:35.334Z,20.24
2022-08-26T03:01:04.854Z,20.19
2022-08-26T03:03:33.024Z,20.16
2022-08-26T03:06:01.094Z,20.13
2022-08-26T03:08:28.590Z,20.12
2022-08-26T03:10:56.067Z,20.10
2022-08-26T03:13:23.476Z,20.08
2022-08-26T03:15:50.965Z,20.05
2022-08-26T03:18:18.617Z,20.02
2022-08-26T03:20:48.279Z,19.99
2022-08-26T03:23:16.366Z,19.97
2022-08-26T03:25:53.733Z,19.94
2022-08-26T03:28:21.262Z,19.92
2022-08-26T03:30:49.162Z,19.90
2022-08-26T03:33:16.632Z,19.88
2022-08-26T03:35:47.657Z,19.85
2022-08-26T03:38:19.841Z,19.81
2022-08-26T03:40:47.872Z,19.77
2022-08-26T03:43:17.093Z,19.73
2022-08-26T03:45:44.638Z,19.71
2022-08-26T03:48:14.177Z,19.69
2022-08-26T03:50:42.396Z,19.66
2022-08-26T03:53:12.654Z,19.64
2022-08-26T03:55:41.420Z,19.60
2022-08-26T03:58:09.086Z,19.57
2022-08-26T04:00:36.800Z,19.56
2022-08-26T04:03:04.386Z,19.55
2022-08-26T04:05:32.105Z,19.55
2022-08-26T04:07:59.867Z,19.54
2022-08-26T04:10:28.977Z,19.54
2022-08-26T04:12:59.405Z,19.54
2022-08-26T04:15:27.854Z,19.54
2022-08-26T04:17:55.955Z,19.55
2022-08-26T04:20:26.710Z,19.57
2022-08-26T04:22:54.217Z,19.60
2022-08-26T04:25:22.398Z,19.63
2022-08-26T04:27:52.182Z,19.66
2022-08-26T04:30:20.291Z,19.68
2022-08-26T04:32:49.812Z,19.70
2022-08-26T04:35:17.714Z,19.71
2022-08-26T04:37:45.181Z,19.73
2022-08-26T04:40:12.862Z,19.77
2022-08-26T04:42:40.368Z,19.81
2022-08-26T04:45:10.259Z,19.85
2022-08-26T04:47:38.220Z,19.90
2022-08-26T04:50:08.314Z,19.92
2022-08-26T04:52:38.632Z,19.95
2022-08-26T04:55:08.588Z,19.99
2022-08-26T04:57:36.420Z,20.02
2022-08-26T05:00:06.840Z,20.04
2022-08-26T05:02:34.421Z,20.07
2022-08-26T05:05:02.548Z,20.12
2022-08-26T05:07:31.129Z,20.19
2022-08-26T05:10:00.181Z,20.27
2022-08-26T05:12:31.305Z,20.34
2022-08-26T05:14:59.852Z,20.43
2022-08-26T05:17:27.340Z,20.54
2022-08-26T05:19:55.387Z,20.65
2022-08-26T05:22:22.958Z,20.73
2022-08-26T05:24:50.409Z,20.82
2022-08-26T05:27:17.826Z,20.91
2022-08-26T05:29:45.800Z,21.01
2022-08-26T05:32:13.661Z,21.09
2022-08-26T05:34:43.024Z,21.17
2022-08-26T05:37:10.770Z,21.24
2022-08-26T05:39:41.226Z,21.30
2022-08-26T05:42:11.008Z,21.32
2022-08-26T05:44:53.546Z,21.35
2022-08-26T05:47:21.654Z,21.38
2022-08-26T05:49:51.619Z,21.41
2022-08-26T05:52:19.667Z,21.42
2022-08-26T05:54:47.310Z,21.44
2022-08-26T05:57:15.860Z,21.45
2022-08-26T05:59:43.783Z,21.47
2022-08-26T06:02:11.252Z,21.52
2022-08-26T06:04:41.393Z,21.58
2022-08-26T06:07:13.390Z,21.64
2022-08-26T06:09:41.427Z,21.70
2022-08-26T06:12:09.658Z,21.75
2022-08-26T06:14:37.082Z,21.79
2022-08-26T06:17:04.619Z,21.84
2022-08-26T06:19:33.123Z,21.89
2022-08-26T06:22:23.291Z,21.93
2022-08-26T06:25:07.875Z,21.97
2022-08-26T06:27:37.398Z,22.03
2022-08-26T06:30:05.462Z,22.11
2022-08-26T06:32:33.881Z,22.21
2022-08-26T06:35:01.630Z,22.33
2022-08-26T06:37:29.442Z,22.46
2022-08-26T06:39:57.081Z,22.57
2022-08-26T06:42:25.247Z,22.64
2022-08-26T06:44:54.121Z,22.69
2022-08-26T06:47:22.038Z,22.73
2022-08-26T06:49:50.369Z,22.81
2022-08-26T06:52:22.983Z,22.89
2022-08-26T06:54:52.155Z,22.97
2022-08-26T06:57:20.555Z,23.03
2022-08-26T06:59:51.242Z,23.08
2022-08-26T07:02:19.603Z,23.11
2022-08-26T07:04:48.410Z,23.12
2022-08-26T07:07:18.683Z,23.15
2022-08-26T07:09:49.542Z,23.18
2022-08-26T07:12:20.948Z,23.21
2022-08-26T07:14:48.513Z,23.23
2022-08-26T07:17:16.664Z,23.25
2022-08-26T07:19:44.193Z,23.30
2022-08-26T07:22:11.821Z,23.39
2022-08-26T07:24:42.422Z,23.47
2022-08-26T07:27:13.781Z,23.54
2022-08-26T07:29:43.300Z,23.62
2022-08-26T07:32:13.200Z,23.72
2022-08-26T07:34:42.872Z,23.83
2022-08-26T07:37:11.528Z,23.94
2022-08-26T07:39:40.436Z,24.04
2022-08-26T07:42:09.671Z,24.14
2022-08-26T07:44:38.050Z,24.24
2022-08-26T07:47:10.436Z,24.34
2022-08-26T07:49:57.951Z,24.47
2022-08-26T07:52:27.975Z,24.57
2022-08-26T07:54:58.467Z,24.64
2022-08-26T07:57:27.273Z,24.70
2022-08-26T07:59:55.912Z,24.77
2022-08-26T08:02:25.772Z,24.83
2022-08-26T08:04:54.451Z,24.90
2022-08-26T08:07:25.854Z,25.01
2022-08-26T08:10:13.454Z,25.15
2022-08-26T08:12:41.884Z,25.29
2022-08-26T08:15:13.182Z,25.42
2022-08-26T08:17:44.190Z,25.50
2022-08-26T08:20:13.843Z,25.58
2022-08-26T08:22:43.032Z,25.65
2022-08-26T08:25:12.233Z,25.72
2022-08-26T08:27:42.943Z,25.78
2022-08-26T08:30:13.786Z,25.82
2022-08-26T08:32:45.355Z,25.86
2022-08-26T08:35:16.158Z,25.91
2022-08-26T08:37:45.104Z,25.99
2022-08-26T08:40:18.799Z,26.10
2022-08-26T08:42:55.413Z,26.15
2022-08-26T08:45:36.277Z,26.22
2022-08-26T08:48:33.370Z,26.33
2022-08-26T08:51:32.910Z,26.50
2022-08-26T08:54:02.569Z,26.77
2022-08-26T08:56:40.750Z,26.99
2022-08-26T08:59:20.244Z,27.29
2022-08-26T09:02:04.898Z,27.70
2022-08-26T09:04:57.929Z,28.07
2022-08-26T09:07:52.302Z,28.45
2022-08-26T09:10:31.159Z,28.73
2022-08-26T09:13:01.285Z,29.03
2022-08-26T09:15:53.693Z,29.22
2022-08-26T09:18:46.057Z,29.29
2022-08-26T09:21:17.941Z,29.34
2022-08-26T09:23:49.708Z,29.27
2022-08-26T09:26:19.767Z,29.18
2022-08-26T09:28:55.122Z,29.12
2022-08-26T09:31:30.790Z,29.08
2022-08-26T09:34:21.187Z,29.03
2022-08-26T09:36:50.324Z,28.97
2022-08-26T09:39:23.684Z,28.94
2022-08-26T09:42:09.600Z,28.96
2022-08-26T09:45:00.128Z,29.09
2022-08-26T09:47:32.786Z,29.23
2022-08-26T09:50:40.189Z,29.39
2022-08-26T09:53:30.672Z,29.55
2022-08-26T09:56:13.925Z,29.66
2022-08-26T09:58:44.013Z,29.83
2022-08-26T10:01:36.340Z,30.15
2022-08-26T10:04:12.058Z,30.62
2022-08-26T10:07:01.718Z,30.98
2022-08-26T10:09:35.395Z,31.55
2022-08-26T10:12:11.825Z,32.06
2022-08-26T10:14:59.022Z,32.51
2022-08-26T10:17:36.685Z,32.97
2022-08-26T10:20:23.229Z,33.33
2022-08-26T10:22:54.199Z,33.67
2022-08-26T10:25:33.144Z,34.00
2022-08-26T10:28:08.534Z,34.30
2022-08-26T10:30:48.726Z,34.62
2022-08-26T10:33:17.915Z,34.99
2022-08-26T10:35:56.313Z,35.38
2022-08-26T10:38:30.397Z,35.71
2022-08-26T10:41:17.002Z,35.85
2022-08-26T10:43:55.367Z,35.76
2022-08-26T10:46:28.449Z,35.69
2022-08-26T10:49:03.340Z,35.87
2022-08-26T10:51:42.138Z,36.07
2022-08-26T10:54:20.338Z,36.21
2022-08-26T10:57:20.342Z,36.31
2022-08-26T11:00:30.044Z,36.45
2022-08-26T11:03:09.551Z,36.58
2022-08-26T11:06:18.360Z,36.74
2022-08-26T11:08:47.892Z,37.12
2022-08-26T11:11:48.023Z,37.37
2022-08-26T11:14:28.549Z,37.75
2022-08-26T11:16:59.598Z,38.02
2022-08-26T11:19:50.548Z,38.17
2022-08-26T11:22:25.707Z,38.42
2022-08-26T11:24:53.133Z,38.48
2022-08-26T11:27:24.747Z,38.61
2022-08-26T11:29:56.765Z,38.78
2022-08-26T11:32:44.562Z,38.92
2022-08-26T11:35:17.154Z,39.04
2022-08-26T11:37:55.443Z,39.32
2022-08-26T11:40:32.769Z,39.60
2022-08-26T11:43:06.396Z,40.02
2022-08-26T11:45:37.860Z,40.32
2022-08-26T11:48:18.734Z,40.44
2022-08-26T11:51:10.377Z,40.61
2022-08-26T11:53:42.509Z,40.73
2022-08-26T11:56:17.344Z,40.79
2022-08-26T11:58:47.370Z,40.93
2022-08-26T12:01:27.267Z,41.12
2022-08-26T12:04:00.174Z,41.28
2022-08-26T12:06:43.465Z,41.38
2022-08-26T12:09:34.428Z,41.44
2022-08-26T12:12:21.918Z,41.58
2022-08-26T12:14:49.920Z,41.75
2022-08-26T12:17:28.350Z,42.04
2022-08-26T12:19:55.823Z,42.33
2022-08-26T12:22:30.392Z,42.67
2022-08-26T12:25:09.779Z,43.04
2022-08-26T12:27:41.482Z,43.10
2022-08-26T12:30:19.906Z,43.15
2022-08-26T12:32:57.885Z,43.27
2022-08-26T12:35:28.780Z,43.66
2022-08-26T12:37:58.189Z,43.95
2022-08-26T12:40:28.969Z,44.16
2022-08-26T12:43:00.254Z,44.34
2022-08-26T12:45:55.316Z,44.49
2022-08-26T12:48:29.056Z,44.84
2022-08-26T12:50:57.749Z,45.18
2022-08-26T12:53:29.397Z,45.32
2022-08-26T12:56:00.351Z,45.31
2022-08-26T12:58:29.860Z,45.45
2022-08-26T13:01:13.509Z,45.75
2022-08-26T13:03:45.344Z,46.07
2022-08-26T13:06:27.867Z,46.25
2022-08-26T13:08:56.795Z,46.37
2022-08-26T13:11:26.442Z,46.34
2022-08-26T13:14:00.381Z,46.50
2022-08-26T13:16:30.333Z,46.66
2022-08-26T13:19:00.673Z,46.74
2022-08-26T13:21:37.498Z,46.83
2022-08-26T13:24:12.999Z,46.88
2022-08-26T13:26:42.735Z,46.89
2022-08-26T13:29:10.787Z,46.98
2022-08-26T13:31:41.302Z,47.21
2022-08-26T13:34:14.539Z,47.44
2022-08-26T13:36:44.320Z,47.78
2022-08-26T13:39:12.698Z,47.98
2022-08-26T13:41:40.378Z,47.77
2022-08-26T13:44:08.258Z,47.26
2022-08-26T13:46:36.272Z,46.33
2022-08-26T13:49:04.052Z,45.87
2022-08-26T13:51:32.471Z,45.74
2022-08-26T13:54:00.603Z,45.58
2022-08-26T13:56:29.891Z,45.79
2022-08-26T13:58:59.411Z,46.05
2022-08-26T14:01:29.120Z,46.23
2022-08-26T14:03:57.448Z,46.40
2022-08-26T14:06:25.124Z,46.59
2022-08-26T14:08:52.702Z,46.88
2022-08-26T14:11:21.411Z,47.36
2022-08-26T14:13:48.933Z,47.85
2022-08-26T14:16:26.089Z,48.35
2022-08-26T14:18:54.352Z,48.68
2022-08-26T14:21:21.872Z,48.97
2022-08-26T14:23:49.337Z,49.16
2022-08-26T14:26:28.865Z,49.30
2022-08-26T14:28:59.618Z,49.48
2022-08-26T14:31:29.418Z,49.59
2022-08-26T14:34:00.952Z,49.77
2022-08-26T14:36:29.076Z,49.86
2022-08-26T14:39:02.771Z,49.80
2022-08-26T14:41:32.030Z,49.74
2022-08-26T14:44:07.846Z,49.86
2022-08-26T14:46:45.965Z,50.11
2022-08-26T14:49:14.556Z,50.27
2022-08-26T14:51:42.565Z,50.17
2022-08-26T14:54:11.946Z,50.17
2022-08-26T14:57:00.312Z,50.28
2022-08-26T14:59:31.109Z,50.09
2022-08-26T15:02:00.565Z,50.02
2022-08-26T15:04:29.435Z,50.10
2022-08-26T15:06:58.936Z,50.31
2022-08-26T15:09:29.343Z,50.53
2022-08-26T15:11:56.842Z,50.76
2022-08-26T15:14:27.583Z,50.91
2022-08-26T15:16:57.613Z,51.01
2022-08-26T15:19:26.498Z,51.04
2022-08-26T15:21:54.461Z,50.90
2022-08-26T15:24:25.742Z,50.97
2022-08-26T15:26:53.632Z,51.14
2022-08-26T15:29:23.750Z,51.32
2022-08-26T15:31:51.496Z,51.52
2022-08-26T15:34:22.635Z,51.71
2022-08-26T15:36:50.133Z,51.82
2022-08-26T15:39:17.733Z,51.80
2022-08-26T15:41:45.454Z,51.82
2022-08-26T15:44:14.220Z,51.91
2022-08-26T15:46:42.913Z,52.06
2022-08-26T15:49:17.598Z,52.03
2022-08-26T15:51:50.454Z,51.98
2022-08-26T15:54:22.184Z,51.95
2022-08-26T15:56:52.093Z,51.86
2022-08-26T15:59:21.499Z,51.74
2022-08-26T16:01:49.161Z,51.65
2022-08-26T16:04:18.481Z,51.46
2022-08-26T16:06:50.038Z,51.35
2022-08-26T16:09:20.120Z,51.23
2022-08-26T16:11:50.021Z,51.12
2022-08-26T16:14:17.797Z,50.99
2022-08-26T16:16:45.358Z,50.86
2022-08-26T16:19:13.003Z,50.68
2022-08-26T16:21:41.394Z,50.44
2022-08-26T16:24:10.012Z,50.16
2022-08-26T16:26:39.335Z,49.90
2022-08-26T16:29:10.588Z,49.64
2022-08-26T16:31:39.019Z,49.39
2022-08-26T16:34:07.755Z,49.06
2022-08-26T16:36:37.260Z,48.61
2022-08-26T16:39:06.993Z,48.10
2022-08-26T16:41:35.061Z,47.58
2022-08-26T16:44:06.586Z,47.04
2022-08-26T16:46:35.678Z,46.42
2022-08-26T16:49:04.759Z,45.91
2022-08-26T16:51:32.854Z,45.48
2022-08-26T16:54:07.236Z,45.02
2022-08-26T16:56:36.475Z,44.59
2022-08-26T16:59:06.114Z,44.11
2022-08-26T17:01:33.797Z,43.58
2022-08-26T17:04:01.460Z,43.01
2022-08-26T17:06:29.686Z,42.38
2022-08-26T17:08:57.154Z,41.69
2022-08-26T17:11:24.651Z,41.04
2022-08-26T17:13:52.203Z,40.39
2022-08-26T17:16:23.321Z,39.71
2022-08-26T17:18:56.318Z,38.97
2022-08-26T17:21:25.048Z,38.26
2022-08-26T17:23:52.866Z,37.58
2022-08-26T17:26:21.080Z,36.89
2022-08-26T17:28:49.983Z,36.19
2022-08-26T17:31:18.687Z,35.46
2022-08-26T17:33:53.419Z,34.69
2022-08-26T17:36:27.838Z,33.98
2022-08-26T17:38:57.629Z,33.33
2022-08-26T17:41:26.186Z,32.77
2022-08-26T17:43:53.887Z,32.23
2022-08-26T17:46:22.136Z,31.74
2022-08-26T17:48:49.940Z,31.27
2022-08-26T17:51:19.435Z,30.83
2022-08-26T17:53:47.867Z,30.42
2022-08-26T17:56:17.796Z,30.03
2022-08-26T17:58:51.133Z,29.66
2022-08-26T18:01:26.069Z,29.31
2022-08-26T18:03:59.688Z,28.97
2022-08-26T18:06:30.593Z,28.64
2022-08-26T18:09:00.015Z,28.33
2022-08-26T18:11:28.417Z,28.05
2022-08-26T18:13:55.881Z,27.79
2022-08-26T18:16:23.556Z,27.54
2022-08-26T18:18:53.863Z,27.33
2022-08-26T18:21:24.468Z,27.10
2022-08-26T18:23:53.691Z,26.87
2022-08-26T18:26:26.565Z,26.66
2022-08-26T18:28:54.164Z,26.47
2022-08-26T18:31:22.687Z,26.28
2022-08-26T18:33:50.867Z,26.05
2022-08-26T18:36:23.129Z,25.81
2022-08-26T18:38:52.204Z,25.59
2022-08-26T18:41:22.056Z,25.41
2022-08-26T18:43:51.465Z,25.28
2022-08-26T18:46:22.077Z,25.17
2022-08-26T18:48:51.058Z,25.06
2022-08-26T18:51:22.125Z,24.96
2022-08-26T18:53:50.319Z,24.87
2022-08-26T18:56:18.876Z,24.77
2022-08-26T18:58:47.123Z,24.67
2022-08-26T19:01:16.615Z,24.57
2022-08-26T19:03:46.078Z,24.49
2022-08-26T19:06:17.050Z,24.39
2022-08-26T19:08:45.078Z,24.31
2022-08-26T19:11:32.466Z,24.21
2022-08-26T19:14:08.214Z,24.13
2022-08-26T19:16:37.473Z,24.05
2022-08-26T19:19:06.340Z,23.99
2022-08-26T19:21:36.430Z,23.94
2022-08-26T19:24:09.235Z,23.88
2022-08-26T19:26:38.752Z,23.83
2022-08-26T19:29:06.530Z,23.77
2022-08-26T19:31:34.108Z,23.71
2022-08-26T19:34:01.941Z,23.69
2022-08-26T19:36:29.421Z,23.65
2022-08-26T19:38:57.498Z,23.61
2022-08-26T19:41:37.012Z,23.56
2022-08-26T19:44:10.562Z,23.52
2022-08-26T19:49:06.787Z,23.40
2022-08-26T19:51:36.450Z,23.36
2022-08-26T19:54:04.250Z,23.33
2022-08-26T19:56:32.427Z,23.30
2022-08-26T19:58:59.892Z,23.26
2022-08-26T20:01:27.580Z,23.23
2022-08-26T20:06:23.898Z,23.19
2022-08-26T20:08:52.097Z,23.16
2022-08-26T20:11:24.216Z,23.11
2022-08-26T20:13:52.156Z,23.07
2022-08-26T20:16:19.784Z,23.06
2022-08-26T20:19:03.513Z,23.05
2022-08-26T20:21:35.741Z,23.05
2022-08-26T20:24:08.227Z,23.06
2022-08-26T20:26:38.077Z,23.06
2022-08-26T20:29:08.233Z,23.05
2022-08-26T20:31:36.135Z,23.04
2022-08-26T20:34:05.201Z,23.03
2022-08-26T20:36:34.248Z,23.02
2022-08-26T20:39:01.759Z,22.99
2022-08-26T20:41:29.604Z,22.97
2022-08-26T20:43:57.385Z,22.95
2022-08-26T20:46:26.303Z,22.93
2022-08-26T20:48:54.181Z,22.91
2022-08-26T20:51:26.247Z,22.90
2022-08-26T20:53:53.890Z,22.88
2022-08-26T20:56:24.203Z,22.86
2022-08-26T20:58:55.543Z,22.84
2022-08-26T21:01:26.542Z,22.82
2022-08-26T21:03:55.506Z,22.79
2022-08-26T21:06:23.756Z,22.78
2022-08-26T21:08:51.513Z,22.75
2022-08-26T21:11:21.323Z,22.72
2022-08-26T21:14:04.289Z,22.70
2022-08-26T21:16:36.140Z,22.69
2022-08-26T21:19:05.790Z,22.67
2022-08-26T21:21:34.620Z,22.65
2022-08-26T21:24:02.960Z,22.64
2022-08-26T21:26:30.576Z,22.62
2022-08-26T21:28:58.070Z,22.60
2022-08-26T21:44:53.664Z,22.41
2022-08-26T21:47:22.308Z,22.38
2022-08-26T21:49:51.067Z,22.34
2022-08-26T21:55:38.621Z,22.29
2022-08-26T21:58:06.160Z,22.26
2022-08-26T22:00:33.762Z,22.24
2022-08-26T22:03:01.328Z,22.22
2022-08-26T22:05:29.152Z,22.22
2022-08-26T22:07:56.639Z,22.21
2022-08-26T22:10:24.173Z,22.20
2022-08-26T22:12:51.710Z,22.19
2022-08-26T22:15:22.959Z,22.18
2022-08-26T22:17:50.456Z,22.18
2022-08-26T22:20:17.934Z,22.17
2022-08-26T22:22:45.541Z,22.18
2022-08-26T22:25:13.088Z,22.18
2022-08-26T22:27:42.851Z,22.18
2022-08-26T22:30:11.726Z,22.18
2022-08-26T22:32:40.356Z,22.18
2022-08-26T22:35:28.228Z,22.18
2022-08-26T22:37:55.532Z,22.19
2022-08-26T22:40:24.969Z,22.18
2022-08-26T22:42:58.114Z,22.19
2022-08-26T22:45:31.323Z,22.19
2022-08-26T22:48:04.469Z,22.18
2022-08-26T22:50:32.398Z,22.19
2022-08-26T22:52:59.847Z,22.19
2022-08-26T22:55:27.335Z,22.18
2022-08-26T22:57:54.908Z,22.16
2022-08-26T23:00:22.374Z,22.14
2022-08-26T23:03:02.008Z,22.11
2022-08-26T23:05:31.332Z,22.08
2022-08-26T23:07:59.846Z,22.06
2022-08-26T23:10:27.359Z,22.01
2022-08-26T23:12:55.252Z,21.98
2022-08-26T23:15:22.896Z,21.93
2022-08-26T23:17:53.580Z,21.88
2022-08-26T23:20:28.380Z,21.83
2022-08-26T23:22:56.348Z,21.81
2022-08-26T23:25:24.699Z,21.77
2022-08-26T23:27:52.630Z,21.74
2022-08-26T23:30:23.712Z,21.70
2022-08-26T23:32:51.842Z,21.67
2022-08-26T23:35:21.548Z,21.64
2022-08-26T23:37:52.040Z,21.60
2022-08-26T23:40:38.592Z,21.57
2022-08-26T23:43:08.661Z,21.53
2022-08-26T23:45:36.335Z,21.50
2022-08-26T23:48:06.564Z,21.46
2022-08-26T23:50:50.284Z,21.43
2022-08-26T23:53:21.974Z,21.39
2022-08-26T23:55:51.954Z,21.35
2022-08-26T23:58:20.777Z,21.31
